Time;durP1;ratioP1;P1;durP2;ratioP2;P2;SDS_P1;SDS_P2;PMS_P1;PMS_P2;Temp;Humidity;BMP_temperature;BMP_pressure;BME280_temperature;BME280_humidity;BME280_pressure;Samples;Min_cycle;Max_cycle;Signal;HPM_P1;HPM_P2
2023/10/08 00:00:55;;;;;;;5.85;1.92;;;16.20;99.90;;;;;;4956026;29;20024;-72
2023/10/08 00:03:21;;;;;;;8.98;2.58;;;16.20;99.90;;;;;;4954598;28;20039;-72
2023/10/08 00:05:51;;;;;;;5.40;2.20;;;16.20;99.90;;;;;;4955353;29;20063;-72
2023/10/08 00:08:17;;;;;;;5.75;2.30;;;16.20;99.90;;;;;;4953392;28;20061;-72
2023/10/08 00:10:45;;;;;;;4.13;1.83;;;16.20;99.90;;;;;;4954307;29;20046;-72
2023/10/08 00:13:12;;;;;;;3.60;2.05;;;16.20;99.90;;;;;;4954193;28;20032;-72
2023/10/08 00:15:52;;;;;;;4.75;2.08;;;16.10;99.90;;;;;;4953881;28;20031;-71
2023/10/08 00:18:22;;;;;;;4.53;1.73;;;16.10;99.90;;;;;;4953021;29;20118;-71
2023/10/08 00:20:58;;;;;;;4.90;2.15;;;16.10;99.90;;;;;;4955743;29;20506;-72
2023/10/08 00:23:27;;;;;;;8.10;2.00;;;16.10;99.90;;;;;;4953308;29;20126;-72
2023/10/08 00:25:54;;;;;;;4.68;1.92;;;16.10;99.90;;;;;;4953976;28;20032;-71
2023/10/08 00:28:24;;;;;;;4.85;1.83;;;16.00;99.90;;;;;;4937373;29;20058;-72
2023/10/08 00:30:53;;;;;;;6.88;1.52;;;16.10;99.90;;;;;;4954220;29;20093;-72
2023/10/08 00:33:19;;;;;;;6.13;2.08;;;16.00;99.90;;;;;;4954119;29;20460;-71
2023/10/08 00:35:44;;;;;;;8.60;1.73;;;16.00;99.90;;;;;;4954925;28;20046;-72
2023/10/08 00:38:20;;;;;;;5.45;1.80;;;15.90;99.90;;;;;;4953065;29;20019;-72
2023/10/08 00:40:49;;;;;;;7.85;1.98;;;15.90;99.90;;;;;;4953882;29;20379;-72
2023/10/08 00:43:35;;;;;;;3.70;1.50;;;15.90;99.90;;;;;;4952852;29;20023;-72
2023/10/08 00:46:04;;;;;;;3.70;1.45;;;15.80;99.90;;;;;;4954614;28;20111;-72
2023/10/08 00:48:35;;;;;;;6.07;1.80;;;15.80;99.90;;;;;;4952617;29;20038;-72
2023/10/08 00:51:26;;;;;;;;;;;15.70;99.90;;;;;;4954070;29;20063;-71
2023/10/08 00:54:07;;;;;;;7.88;2.17;;;15.70;99.90;;;;;;4952935;29;19918;-72
2023/10/08 00:56:53;;;;;;;;;;;15.70;99.90;;;;;;4937679;29;20551;-72
2023/10/08 00:59:21;;;;;;;5.78;2.03;;;15.70;99.90;;;;;;4954635;28;19921;-72
2023/10/08 01:01:53;;;;;;;6.15;2.03;;;15.70;99.90;;;;;;4952447;29;20102;-71
2023/10/08 01:04:26;;;;;;;3.22;1.27;;;15.80;99.90;;;;;;4953370;28;20038;-72
2023/10/08 01:06:56;;;;;;;4.40;1.70;;;15.70;99.90;;;;;;4944235;28;20175;-71
2023/10/08 01:09:31;;;;;;;3.90;1.75;;;15.60;99.90;;;;;;4953322;28;20077;-71
2023/10/08 01:12:27;;;;;;;3.83;1.75;;;15.70;99.90;;;;;;4950461;28;20035;-71
2023/10/08 01:14:54;;;;;;;4.32;1.67;;;15.70;99.90;;;;;;4951618;28;20452;-71
2023/10/08 01:17:25;;;;;;;5.18;1.98;;;15.60;99.90;;;;;;4950940;28;20168;-71
2023/10/08 01:19:57;;;;;;;5.65;1.83;;;15.50;99.90;;;;;;4949949;28;20031;-71
2023/10/08 01:22:29;;;;;;;4.60;1.67;;;15.40;99.90;;;;;;4936983;29;20550;-71
2023/10/08 01:24:55;;;;;;;3.65;1.60;;;15.20;99.90;;;;;;4953953;28;20201;-71
2023/10/08 01:27:24;;;;;;;6.57;2.00;;;15.20;99.90;;;;;;4951891;28;20031;-71
2023/10/08 01:29:53;;;;;;;4.45;2.17;;;15.20;99.90;;;;;;4954643;28;20031;-71
2023/10/08 01:32:21;;;;;;;7.00;2.53;;;15.10;99.90;;;;;;4952014;28;20050;-71
2023/10/08 01:34:48;;;;;;;3.83;2.08;;;15.20;99.90;;;;;;4954044;28;20118;-71
2023/10/08 01:37:18;;;;;;;4.25;2.05;;;15.20;99.90;;;;;;4948563;28;20024;-71
2023/10/08 01:39:49;;;;;;;6.68;3.22;;;15.20;99.90;;;;;;4950389;28;20038;-71
2023/10/08 01:42:17;;;;;;;3.80;2.05;;;15.20;99.90;;;;;;4952926;28;20110;-71
2023/10/08 01:44:48;;;;;;;6.28;2.30;;;15.20;99.90;;;;;;4952666;28;20065;-71
2023/10/08 01:47:16;;;;;;;11.20;2.20;;;15.20;99.90;;;;;;4952276;29;20046;-71
2023/10/08 01:49:46;;;;;;;2.40;1.35;;;15.10;99.90;;;;;;4953131;28;20082;-71
2023/10/08 01:52:22;;;;;;;5.40;1.85;;;15.10;99.90;;;;;;4936354;29;20062;-71
2023/10/08 01:54:54;;;;;;;4.35;1.67;;;15.00;99.90;;;;;;4937824;28;20571;-71
2023/10/08 01:57:20;;;;;;;2.85;1.60;;;15.00;99.90;;;;;;4951659;28;20035;-71
2023/10/08 01:59:45;;;;;;;3.70;1.55;;;14.90;99.90;;;;;;4953030;28;20521;-70
2023/10/08 02:02:15;;;;;;;4.53;1.67;;;14.80;99.90;;;;;;4951433;28;20042;-71
2023/10/08 02:04:41;;;;;;;8.48;1.90;;;14.70;99.90;;;;;;4953472;28;20031;-70
2023/10/08 02:07:13;;;;;;;5.72;2.00;;;14.80;99.90;;;;;;4951078;28;20110;-71
2023/10/08 02:09:40;;;;;;;5.70;2.35;;;14.70;99.90;;;;;;4952221;28;20067;-71
2023/10/08 02:12:06;;;;;;;4.18;1.67;;;14.70;99.90;;;;;;4958523;28;20081;-71
2023/10/08 02:14:35;;;;;;;7.05;2.28;;;14.70;99.90;;;;;;4947962;28;20063;-71
2023/10/08 02:17:05;;;;;;;9.10;2.05;;;14.70;99.90;;;;;;4951337;29;20057;-71
2023/10/08 02:19:36;;;;;;;3.97;1.45;;;14.70;99.90;;;;;;4953882;28;20027;-70
2023/10/08 02:22:05;;;;;;;4.28;1.95;;;14.70;99.90;;;;;;4948271;28;20590;-71
2023/10/08 02:24:32;;;;;;;5.00;2.42;;;14.80;99.90;;;;;;4947808;28;20414;-70
2023/10/08 02:26:59;;;;;;;6.90;1.98;;;14.80;99.90;;;;;;4950747;29;20040;-71
2023/10/08 02:29:31;;;;;;;10.43;2.72;;;14.80;99.90;;;;;;4968223;28;20042;-71
2023/10/08 02:31:58;;;;;;;6.03;2.13;;;14.80;99.90;;;;;;4951071;28;20492;-71
2023/10/08 02:34:26;;;;;;;6.20;2.40;;;14.80;99.90;;;;;;4936145;29;20579;-71
2023/10/08 02:36:52;;;;;;;5.93;2.38;;;14.80;99.90;;;;;;4950783;28;20407;-72
2023/10/08 02:39:26;;;;;;;4.40;1.95;;;14.80;99.90;;;;;;4952367;28;20027;-71
2023/10/08 02:41:56;;;;;;;9.50;2.35;;;14.80;99.90;;;;;;4952415;28;20038;-71
2023/10/08 02:44:22;;;;;;;11.65;2.22;;;14.80;99.90;;;;;;4952417;28;20043;-71
2023/10/08 02:46:49;;;;;;;6.70;2.78;;;14.80;99.90;;;;;;4951448;29;20498;-71
2023/10/08 02:49:20;;;;;;;6.60;2.65;;;14.70;99.90;;;;;;4953186;28;20034;-71
2023/10/08 02:51:55;;;;;;;4.15;2.10;;;14.70;99.90;;;;;;4951088;28;20035;-72
2023/10/08 02:54:31;;;;;;;7.13;3.08;;;14.70;99.90;;;;;;4935888;29;20377;-71
2023/10/08 02:57:21;;;;;;;4.22;1.98;;;14.60;99.90;;;;;;4935566;29;20036;-72
2023/10/08 02:59:45;;;;;;;5.28;1.95;;;14.60;99.90;;;;;;4952588;29;20035;-72
2023/10/08 03:02:18;;;;;;;5.40;2.00;;;14.70;99.90;;;;;;4952118;28;20035;-71
2023/10/08 03:04:46;;;;;;;7.18;2.90;;;14.70;99.90;;;;;;4952840;28;20027;-71
2023/10/08 03:07:21;;;;;;;9.68;2.35;;;14.60;99.90;;;;;;4950643;29;20035;-71
2023/10/08 03:09:50;;;;;;;5.05;2.15;;;14.50;99.90;;;;;;4951991;28;20023;-72
2023/10/08 03:12:17;;;;;;;4.22;1.67;;;14.50;99.90;;;;;;4935153;29;20169;-72
2023/10/08 03:15:01;;;;;;;4.82;2.33;;;14.50;99.90;;;;;;4951394;28;20042;-72
2023/10/08 03:17:37;;;;;;;3.78;2.05;;;14.40;99.90;;;;;;4950749;28;20031;-72
2023/10/08 03:22:47;;;;;;;12.05;1.95;;;14.20;99.90;;;;;;4954681;29;20514;-71
2023/10/08 03:25:17;;;;;;;3.47;1.33;;;14.20;99.90;;;;;;4956685;29;20027;-71
2023/10/08 03:27:43;;;;;;;4.38;1.70;;;14.10;99.90;;;;;;4953743;28;20038;-71
2023/10/08 03:30:15;;;;;;;5.35;1.30;;;14.00;99.90;;;;;;4955753;28;20027;-71
2023/10/08 03:32:44;;;;;;;3.22;1.60;;;13.90;99.90;;;;;;4938714;29;20031;-71
2023/10/08 03:35:10;;;;;;;7.25;1.92;;;13.90;99.90;;;;;;4954628;28;20508;-71
2023/10/08 03:37:46;;;;;;;4.78;2.03;;;13.90;99.90;;;;;;4954086;28;20031;-71
2023/10/08 03:42:57;;;;;;;5.45;2.38;;;13.90;99.90;;;;;;4953622;29;20070;-72
2023/10/08 03:48:15;;;;;;;4.15;1.88;;;13.80;99.90;;;;;;4948583;29;20117;-71
2023/10/08 03:50:42;;;;;;;3.97;2.15;;;13.90;99.90;;;;;;4956884;28;20387;-72
2023/10/08 03:53:11;;;;;;;6.47;1.80;;;13.90;99.90;;;;;;4955208;28;20082;-71
2023/10/08 03:55:40;;;;;;;4.90;1.60;;;13.90;99.90;;;;;;4955982;28;20387;-72
2023/10/08 03:58:13;;;;;;;4.85;2.15;;;13.90;99.90;;;;;;4948288;29;20034;-71
2023/10/08 04:00:42;;;;;;;4.13;2.00;;;13.90;99.90;;;;;;4951208;29;20471;-71
2023/10/08 04:03:11;;;;;;;2.80;1.17;;;13.80;99.90;;;;;;4949939;28;20035;-70
2023/10/08 04:05:56;;;;;;;6.63;2.45;;;13.80;99.90;;;;;;4956081;28;20120;-70
2023/10/08 04:08:34;;;;;;;5.93;1.90;;;13.70;99.90;;;;;;4953838;28;20050;-71
2023/10/08 04:11:07;;;;;;;5.30;1.95;;;13.70;99.90;;;;;;4956355;28;20691;-71
2023/10/08 04:13:38;;;;;;;4.93;2.22;;;13.60;99.90;;;;;;4959956;28;20402;-71
2023/10/08 04:16:06;;;;;;;5.10;1.65;;;13.60;99.90;;;;;;4962910;28;20101;-71
2023/10/08 04:18:32;;;;;;;4.50;1.75;;;13.60;99.90;;;;;;4956488;28;20035;-71
2023/10/08 04:21:04;;;;;;;8.55;2.35;;;13.60;99.90;;;;;;4955683;28;20114;-71
2023/10/08 04:23:31;;;;;;;5.72;1.80;;;13.60;99.90;;;;;;4959680;28;20038;-71
2023/10/08 04:25:57;;;;;;;10.35;2.72;;;13.60;99.90;;;;;;4960376;29;20059;-71
2023/10/08 04:28:28;;;;;;;6.45;1.95;;;13.50;99.90;;;;;;4959220;29;20041;-71
2023/10/08 04:31:00;;;;;;;5.43;2.03;;;13.50;99.90;;;;;;4959935;28;20035;-71
2023/10/08 04:33:30;;;;;;;7.60;1.67;;;13.50;99.90;;;;;;4951088;28;20431;-71
2023/10/08 04:35:56;;;;;;;9.55;2.15;;;13.50;99.90;;;;;;4955243;29;20046;-71
2023/10/08 04:38:28;;;;;;;7.10;3.47;;;13.40;99.90;;;;;;4953756;29;20075;-71
2023/10/08 04:41:01;;;;;;;5.10;2.10;;;13.30;99.90;;;;;;4951996;29;20027;-71
2023/10/08 04:43:27;;;;;;;8.45;2.15;;;13.30;99.90;;;;;;4948820;28;20401;-71
2023/10/08 04:46:46;;;;;;;7.57;1.88;;;13.40;99.90;;;;;;4969351;28;20031;-73
2023/10/08 04:48:52;;;;;;;11.30;1.88;;;13.40;99.90;;;;;;4948895;28;20078;-71
2023/10/08 04:51:21;;;;;;;11.25;2.65;;;13.30;99.90;;;;;;4953595;28;20070;-71
2023/10/08 04:53:47;;;;;;;4.10;1.65;;;13.30;99.90;;;;;;4953101;28;20139;-71
2023/10/08 04:56:17;;;;;;;11.45;2.05;;;13.30;99.90;;;;;;4953590;28;20113;-71
2023/10/08 04:58:48;;;;;;;7.97;1.85;;;13.30;99.90;;;;;;4951929;29;20035;-71
2023/10/08 05:01:20;;;;;;;11.05;2.38;;;13.30;99.90;;;;;;4954843;28;20019;-71
2023/10/08 05:17:22;;;;;;;7.75;2.50;;;13.10;99.90;;;;;;4952338;29;20046;-71
2023/10/08 05:33:12;;;;;;;8.15;2.15;;;13.30;99.90;;;;;;4953836;29;20032;-71
2023/10/08 05:54:35;;;;;;;4.35;1.95;;;13.20;99.90;;;;;;4951897;28;20530;-69
2023/10/08 06:18:25;;;;;;;5.00;1.70;;;13.50;99.90;;;;;;4943397;28;20082;-69
2023/10/08 06:20:54;;;;;;;2.80;1.63;;;13.60;99.90;;;;;;4967007;28;20484;-68
2023/10/08 06:23:22;;;;;;;3.00;1.80;;;13.60;99.90;;;;;;4953901;28;20082;-70
2023/10/08 06:26:25;;;;;;;5.75;2.30;;;13.60;99.90;;;;;;4944474;28;20043;-70
2023/10/08 06:28:44;;;;;;;2.78;1.63;;;13.60;99.90;;;;;;4948511;29;20051;-69
2023/10/08 06:31:16;;;;;;;5.20;2.05;;;13.60;99.90;;;;;;4944512;29;20065;-69
2023/10/08 06:33:44;;;;;;;10.20;1.92;;;13.70;99.90;;;;;;4951562;28;20039;-71
2023/10/08 06:38:38;;;;;;;3.92;1.95;;;13.80;99.90;;;;;;4953466;28;20058;-69
2023/10/08 06:43:39;;;;;;;5.03;2.42;;;13.90;99.90;;;;;;4949813;29;20473;-69
2023/10/08 06:46:12;;;;;;;3.97;1.75;;;13.90;99.90;;;;;;4949312;28;20163;-70
2023/10/08 06:48:45;;;;;;;4.97;1.95;;;14.00;99.90;;;;;;4952177;29;20090;-70
2023/10/08 06:51:13;;;;;;;7.35;2.58;;;14.00;99.90;;;;;;4937016;29;20030;-70
2023/10/08 06:53:48;;;;;;;6.10;1.70;;;14.10;99.90;;;;;;4951801;28;20036;-70
2023/10/08 06:56:15;;;;;;;5.50;2.22;;;14.10;99.90;;;;;;4949707;28;20031;-42
2023/10/08 06:58:48;;;;;;;6.53;2.10;;;14.20;99.90;;;;;;4953207;29;20374;-44
2023/10/08 07:01:25;;;;;;;6.18;2.38;;;14.20;99.90;;;;;;4938987;28;20036;-43
2023/10/08 07:03:56;;;;;;;6.28;1.98;;;14.30;99.90;;;;;;4938928;29;20082;-44
2023/10/08 07:06:31;;;;;;;5.80;2.17;;;14.30;99.90;;;;;;4932336;29;20039;-43
2023/10/08 07:09:22;;;;;;;4.63;1.85;;;14.30;99.90;;;;;;4944268;29;20031;-48
2023/10/08 07:11:54;;;;;;;7.65;2.72;;;14.30;99.90;;;;;;4955602;28;20053;-68
2023/10/08 07:14:22;;;;;;;7.18;2.22;;;14.40;99.90;;;;;;4952120;29;20043;-69
2023/10/08 07:16:52;;;;;;;8.93;2.13;;;14.50;99.90;;;;;;4954981;28;20471;-69
2023/10/08 07:19:18;;;;;;;10.02;1.73;;;14.50;99.90;;;;;;4951684;29;20041;-71
2023/10/08 07:21:47;;;;;;;8.95;2.20;;;14.60;99.90;;;;;;4956644;28;20051;-71
2023/10/08 07:24:21;;;;;;;8.30;2.30;;;14.70;99.90;;;;;;4952862;29;20057;-70
2023/10/08 07:26:49;;;;;;;4.68;2.05;;;14.80;99.90;;;;;;4955111;28;20094;-69
2023/10/08 07:29:17;;;;;;;6.68;2.35;;;15.00;99.90;;;;;;4952802;29;20023;-69
2023/10/08 07:31:52;;;;;;;13.00;2.70;;;15.10;99.90;;;;;;4956191;28;20502;-70
2023/10/08 07:36:51;;;;;;;6.17;2.43;;;15.30;99.90;;;;;;4954898;28;20024;-68
2023/10/08 07:41:58;;;;;;;7.68;1.63;;;15.50;99.90;;;;;;4962680;28;20463;-68
2023/10/08 07:44:30;;;;;;;9.80;2.42;;;15.70;99.90;;;;;;4951131;28;20415;-67
2023/10/08 07:46:56;;;;;;;8.23;2.78;;;15.70;99.90;;;;;;4954526;29;20110;-68
2023/10/08 07:49:25;;;;;;;6.32;2.40;;;15.80;99.90;;;;;;4951601;29;20114;-67
2023/10/08 07:51:52;;;;;;;5.82;1.67;;;15.80;99.90;;;;;;4938802;29;20059;-68
2023/10/08 07:54:23;;;;;;;5.25;2.38;;;15.90;99.90;;;;;;4951383;28;20035;-68
2023/10/08 07:56:57;;;;;;;4.72;1.70;;;16.00;99.90;;;;;;4938294;29;20054;-67
2023/10/08 07:59:22;;;;;;;7.50;2.28;;;16.10;99.90;;;;;;4952330;29;20039;-68
2023/10/08 08:01:48;;;;;;;3.53;1.85;;;16.10;99.90;;;;;;4955556;29;20032;-68
2023/10/08 08:04:23;;;;;;;3.25;1.90;;;16.20;99.90;;;;;;4952181;29;20031;-68
2023/10/08 08:06:52;;;;;;;4.65;1.55;;;16.20;99.90;;;;;;4953947;28;20035;-68
2023/10/08 08:09:23;;;;;;;6.50;2.30;;;16.30;99.90;;;;;;4951065;29;20043;-68
2023/10/08 08:11:49;;;;;;;5.72;2.15;;;16.30;99.90;;;;;;4957721;28;20034;-68
2023/10/08 08:14:16;;;;;;;5.10;2.65;;;16.40;99.90;;;;;;4950473;29;20111;-68
2023/10/08 08:16:48;;;;;;;4.82;1.92;;;16.40;99.90;;;;;;4936206;28;20036;-69
2023/10/08 08:19:16;;;;;;;5.10;2.22;;;16.60;99.90;;;;;;4942162;29;20036;-69
2023/10/08 08:21:45;;;;;;;5.35;2.42;;;16.80;99.90;;;;;;4939710;29;20040;-69
2023/10/08 08:24:13;;;;;;;4.05;1.92;;;16.80;99.90;;;;;;4944982;29;20062;-70
2023/10/08 08:26:40;;;;;;;4.95;2.00;;;16.70;99.90;;;;;;4953544;28;20061;-68
2023/10/08 08:29:15;;;;;;;7.45;2.80;;;16.70;99.90;;;;;;4952555;28;20031;-69
2023/10/08 08:31:46;;;;;;;4.20;2.08;;;16.70;99.90;;;;;;4955161;29;20185;-69
2023/10/08 08:34:19;;;;;;;;;;;16.70;99.90;;;;;;4953214;29;20465;-67
2023/10/08 08:36:48;;;;;;;3.70;1.63;;;16.70;99.90;;;;;;4954939;28;20385;-69
2023/10/08 08:39:32;;;;;;;6.20;2.67;;;16.80;99.90;;;;;;4953088;29;20031;-71
2023/10/08 08:42:01;;;;;;;7.80;2.38;;;16.80;99.90;;;;;;4959952;28;20114;-69
2023/10/08 08:44:33;;;;;;;8.93;2.00;;;16.80;99.90;;;;;;4942623;29;20040;-70
2023/10/08 08:47:04;;;;;;;4.07;1.42;;;17.00;99.90;;;;;;4936417;29;20042;-69
2023/10/08 08:49:39;;;;;;;4.85;2.10;;;17.00;99.90;;;;;;4948509;28;20361;-69
2023/10/08 08:52:05;;;;;;;4.15;1.73;;;17.10;99.90;;;;;;4954644;29;20742;-70
2023/10/08 08:54:32;;;;;;;3.47;1.48;;;17.30;99.90;;;;;;4952963;28;20035;-69
2023/10/08 08:57:04;;;;;;;6.10;2.13;;;17.50;99.90;;;;;;4953396;29;20027;-69
2023/10/08 08:59:30;;;;;;;8.00;3.22;;;17.60;99.90;;;;;;4944726;29;20039;-68
2023/10/08 09:02:00;;;;;;;6.03;2.25;;;17.90;99.90;;;;;;4954395;29;20090;-68
2023/10/08 09:04:32;;;;;;;4.30;2.03;;;18.20;99.90;;;;;;4953070;28;20467;-67
2023/10/08 09:07:04;;;;;;;4.07;1.60;;;18.00;99.90;;;;;;4937097;29;20035;-68
2023/10/08 09:09:38;;;;;;;5.38;2.25;;;18.10;99.90;;;;;;4936482;29;20482;-68
2023/10/08 09:12:07;;;;;;;5.72;2.20;;;18.10;99.90;;;;;;4956001;28;20134;-68
2023/10/08 09:14:33;;;;;;;6.78;2.17;;;18.10;99.90;;;;;;4943364;28;20063;-70
2023/10/08 09:17:01;;;;;;;6.57;2.25;;;18.10;99.90;;;;;;4953381;28;20379;-71
2023/10/08 09:19:27;;;;;;;5.55;2.90;;;17.90;99.90;;;;;;4950989;29;20039;-71
2023/10/08 09:22:07;;;;;;;3.78;1.77;;;18.00;99.90;;;;;;4950685;28;20039;-71
2023/10/08 09:24:42;;;;;;;4.22;2.00;;;18.30;99.90;;;;;;4952333;29;20464;-71
2023/10/08 09:27:18;;;;;;;6.68;1.92;;;18.30;99.90;;;;;;4952495;28;20042;-71
2023/10/08 09:29:46;;;;;;;7.05;2.53;;;18.30;99.90;;;;;;4948583;28;20082;-72
2023/10/08 09:32:23;;;;;;;5.18;2.15;;;18.50;99.90;;;;;;4950001;28;20035;-72
2023/10/08 09:34:52;;;;;;;10.45;2.45;;;18.50;99.90;;;;;;4945581;28;20031;-71
2023/10/08 09:37:21;;;;;;;6.10;2.08;;;18.50;99.90;;;;;;4953680;28;20118;-71
2023/10/08 09:39:52;;;;;;;5.93;2.17;;;18.40;99.90;;;;;;4968473;28;20042;-71
2023/10/08 09:42:22;;;;;;;9.97;2.37;;;18.40;99.90;;;;;;4956450;28;20040;-71
2023/10/08 09:44:48;;;;;;;8.57;2.50;;;18.20;99.90;;;;;;4949301;28;20034;-71
2023/10/08 09:47:23;;;;;;;5.53;1.98;;;18.10;99.90;;;;;;4948786;28;20173;-71
2023/10/08 09:50:11;;;;;;;3.75;2.38;;;18.50;99.90;;;;;;4952082;28;20031;-72
2023/10/08 09:52:53;;;;;;;5.70;2.65;;;18.40;99.90;;;;;;4950828;29;20603;-72
2023/10/08 09:55:20;;;;;;;5.57;2.13;;;18.50;99.90;;;;;;4950366;29;20043;-72
2023/10/08 09:57:46;;;;;;;7.15;2.20;;;18.60;99.90;;;;;;4944962;28;20079;-71
2023/10/08 10:00:18;;;;;;;3.35;1.73;;;18.60;99.90;;;;;;4953882;29;20062;-72
2023/10/08 10:02:45;;;;;;;6.78;2.55;;;18.80;99.90;;;;;;4950494;28;20024;-71
2023/10/08 10:05:12;;;;;;;4.80;2.20;;;18.90;99.90;;;;;;4949727;28;20039;-71
2023/10/08 10:07:43;;;;;;;9.75;3.17;;;18.70;99.90;;;;;;4953538;29;20038;-71
2023/10/08 10:10:38;;;;;;;6.05;1.73;;;18.80;99.90;;;;;;4933392;28;20074;-71
2023/10/08 10:13:08;;;;;;;6.18;2.10;;;18.90;99.90;;;;;;4959364;23;20058;-71
2023/10/08 10:15:37;;;;;;;7.33;2.50;;;19.20;99.90;;;;;;4959329;28;20034;-72
2023/10/08 10:18:13;;;;;;;5.72;2.72;;;19.30;99.90;;;;;;4948216;28;20382;-71
2023/10/08 10:20:52;;;;;;;4.78;1.98;;;19.20;99.90;;;;;;4936274;29;20027;-72
2023/10/08 10:23:39;;;;;;;5.53;1.80;;;19.20;99.90;;;;;;4952312;28;20113;-72
2023/10/08 10:26:31;;;;;;;6.63;1.67;;;19.20;99.90;;;;;;4964710;28;20043;-72
2023/10/08 10:29:14;;;;;;;5.82;1.95;;;19.70;99.90;;;;;;4961759;28;20039;-72
2023/10/08 10:31:50;;;;;;;5.88;2.40;;;19.60;99.90;;;;;;4963860;28;20031;-72
2023/10/08 10:34:18;;;;;;;6.07;1.77;;;19.80;99.90;;;;;;4964564;28;20030;-70
2023/10/08 10:36:58;;;;;;;3.42;1.38;;;19.90;99.90;;;;;;4962632;28;20026;-70
2023/10/08 10:39:26;;;;;;;5.72;1.75;;;19.70;99.90;;;;;;4975393;28;20121;-71
2023/10/08 10:42:20;;;;;;;5.43;2.10;;;19.70;99.90;;;;;;4952917;28;20074;-72
2023/10/08 10:44:50;;;;;;;5.63;1.80;;;20.10;99.90;;;;;;4948498;29;20059;-71
2023/10/08 10:52:31;;;;;;;8.93;1.63;;;21.40;99.90;;;;;;4959064;28;20562;-72
2023/10/08 10:58:39;;;;;;;4.00;1.38;;;21.80;99.90;;;;;;4947023;28;20547;-71
2023/10/08 11:03:23;;;;;;;4.72;1.70;;;21.30;99.90;;;;;;4944937;29;20504;-70
2023/10/08 11:06:05;;;;;;;7.20;2.03;;;21.30;99.90;;;;;;4958479;28;20027;-68
2023/10/08 11:08:35;;;;;;;9.75;1.92;;;21.20;99.90;;;;;;4960383;28;20454;-72
2023/10/08 11:11:05;;;;;;;4.45;1.83;;;21.50;99.90;;;;;;4950672;28;20091;-70
2023/10/08 11:13:40;;;;;;;6.83;1.80;;;21.50;99.90;;;;;;4952520;29;20040;-70
2023/10/08 11:16:13;;;;;;;3.95;1.48;;;21.60;99.90;;;;;;4945652;28;20040;-69
2023/10/08 11:18:46;;;;;;;7.60;2.03;;;22.20;99.90;;;;;;4951135;29;20032;-70
2023/10/08 11:21:23;;;;;;;6.75;2.10;;;22.60;99.90;;;;;;4949440;28;20039;-67
2023/10/08 11:24:08;;;;;;;5.47;1.67;;;23.30;99.90;;;;;;4952490;29;20024;-69
2023/10/08 11:26:39;;;;;;;8.82;2.30;;;22.70;99.90;;;;;;4946206;29;20066;-69
2023/10/08 11:29:13;;;;;;;4.38;1.67;;;24.30;99.80;;;;;;4949381;28;20081;-69
2023/10/08 11:31:41;;;;;;;6.35;2.13;;;25.10;96.80;;;;;;4945315;28;20043;-69
2023/10/08 11:34:12;;;;;;;5.97;2.00;;;23.80;98.50;;;;;;4944982;28;20039;-69
2023/10/08 11:36:48;;;;;;;4.47;1.92;;;24.10;98.40;;;;;;4951891;28;20034;-69
2023/10/08 11:39:21;;;;;;;3.17;1.50;;;25.70;97.20;;;;;;4956881;28;20034;-68
2023/10/08 11:42:25;;;;;;;3.63;1.70;;;26.10;95.40;;;;;;4953510;28;20035;-68
2023/10/08 11:44:52;;;;;;;5.10;2.08;;;28.90;93.40;;;;;;4946526;28;20039;-68
2023/10/08 11:47:20;;;;;;;4.68;1.40;;;28.20;91.40;;;;;;4955799;28;20415;-68
2023/10/08 11:49:48;;;;;;;4.28;1.48;;;29.40;90.70;;;;;;4946803;28;20035;-70
2023/10/08 11:52:21;;;;;;;4.22;1.38;;;30.70;86.40;;;;;;4952674;28;20039;-69
2023/10/08 11:54:48;;;;;;;5.10;1.42;;;29.80;85.90;;;;;;4938643;28;20038;-69
2023/10/08 11:57:19;;;;;;;7.45;2.00;;;31.50;83.60;;;;;;4946496;28;20050;-69
2023/10/08 11:59:46;;;;;;;4.88;1.95;;;31.50;81.20;;;;;;4972926;28;20043;-70
2023/10/08 12:02:16;;;;;;;8.93;1.73;;;29.70;83.40;;;;;;4973619;28;20558;-70
2023/10/08 12:04:45;;;;;;;4.30;1.42;;;30.40;83.20;;;;;;4954632;28;20039;-70
2023/10/08 12:07:11;;;;;;;4.20;1.65;;;30.90;79.10;;;;;;4949774;28;20031;-70
2023/10/08 12:09:40;;;;;;;5.57;1.55;;;28.90;82.30;;;;;;4953636;29;20537;-70
2023/10/08 12:12:13;;;;;;;5.55;1.38;;;28.00;85.00;;;;;;4948167;28;20039;-71
2023/10/08 12:14:39;;;;;;;4.60;1.42;;;29.70;83.30;;;;;;4950294;28;20035;-69
2023/10/08 12:17:11;;;;;;;7.70;1.60;;;29.90;80.40;;;;;;4948406;28;20121;-70
2023/10/08 12:19:40;;;;;;;4.82;1.70;;;26.80;85.00;;;;;;4947473;28;20039;-70
2023/10/08 12:22:08;;;;;;;6.68;1.90;;;26.30;88.40;;;;;;4943405;28;20039;-71
2023/10/08 12:24:34;;;;;;;5.28;1.70;;;27.30;86.40;;;;;;4948982;28;20030;-70
2023/10/08 12:27:03;;;;;;;7.07;1.63;;;28.00;85.60;;;;;;4945120;28;20068;-70
2023/10/08 12:29:28;;;;;;;11.05;2.25;;;28.00;84.50;;;;;;4949588;28;20510;-70
2023/10/08 12:31:54;;;;;;;5.68;2.08;;;27.10;86.90;;;;;;4960921;28;20057;-70
2023/10/08 12:34:22;;;;;;;2.53;1.30;;;27.90;85.30;;;;;;4947867;28;20059;-69
2023/10/08 12:36:48;;;;;;;7.65;1.63;;;29.50;82.40;;;;;;4954731;28;20024;-70
2023/10/08 12:39:14;;;;;;;3.95;1.67;;;30.10;81.60;;;;;;4954585;28;20131;-70
2023/10/08 12:41:44;;;;;;;5.38;2.42;;;28.50;82.30;;;;;;4953684;29;20034;-70
2023/10/08 12:44:15;;;;;;;5.35;1.60;;;29.30;82.40;;;;;;4932563;29;20034;-70
2023/10/08 12:46:43;;;;;;;10.48;2.83;;;29.00;80.70;;;;;;4953252;28;20122;-72
2023/10/08 12:49:09;;;;;;;4.65;1.40;;;28.60;82.30;;;;;;4968397;28;20027;-69
2023/10/08 12:51:41;;;;;;;4.45;1.80;;;29.00;81.40;;;;;;4963818;28;20054;-69
2023/10/08 12:54:07;;;;;;;6.15;1.70;;;27.90;84.10;;;;;;4959432;28;20035;-69
2023/10/08 12:56:48;;;;;;;5.47;2.05;;;28.10;83.20;;;;;;4956228;28;20027;-69
2023/10/08 12:59:20;;;;;;;7.57;2.70;;;27.20;86.50;;;;;;4946358;29;20027;-68
2023/10/08 13:01:51;;;;;;;7.57;1.80;;;29.00;81.80;;;;;;4953173;28;20054;-68
2023/10/08 13:04:25;;;;;;;;;;;27.90;82.50;;;;;;4956873;29;20035;-68
2023/10/08 13:06:51;;;;;;;2.85;1.70;;;28.30;83.70;;;;;;4956477;28;19914;-68
2023/10/08 13:09:17;;;;;;;7.25;2.08;;;28.70;81.60;;;;;;4964585;28;20533;-67
2023/10/08 13:11:50;;;;;;;4.80;2.00;;;29.10;82.00;;;;;;4957166;28;20035;-69
2023/10/08 13:14:15;;;;;;;5.70;1.92;;;31.40;78.30;;;;;;4946890;29;20376;-68
2023/10/08 13:16:41;;;;;;;5.30;1.80;;;30.40;78.50;;;;;;4953517;28;20039;-69
2023/10/08 13:19:08;;;;;;;9.00;3.10;;;28.70;79.30;;;;;;4955516;28;20129;-68
2023/10/08 13:21:36;;;;;;;9.07;2.13;;;30.10;79.50;;;;;;4956475;28;20035;-69
2023/10/08 13:24:05;;;;;;;11.45;1.85;;;30.00;76.80;;;;;;4955361;28;20489;-66
2023/10/08 13:26:31;;;;;;;5.78;1.98;;;27.20;81.50;;;;;;4951940;28;20071;-67
2023/10/08 13:28:58;;;;;;;5.05;1.80;;;27.10;83.30;;;;;;4952890;29;20087;-67
2023/10/08 13:31:27;;;;;;;5.82;2.00;;;26.90;84.90;;;;;;4952057;28;20059;-71
2023/10/08 13:33:56;;;;;;;4.07;1.77;;;26.80;85.10;;;;;;4953772;29;20050;-70
2023/10/08 13:36:23;;;;;;;7.30;2.03;;;26.00;86.40;;;;;;4953281;28;20039;-69
2023/10/08 13:38:50;;;;;;;11.65;1.90;;;27.90;84.70;;;;;;4933837;29;20393;-69
2023/10/08 13:41:16;;;;;;;2.70;1.08;;;26.70;85.40;;;;;;4952270;28;20041;-69
2023/10/08 13:43:51;;;;;;;5.72;2.00;;;27.30;83.40;;;;;;4952850;29;20405;-70
2023/10/08 13:46:22;;;;;;;3.88;1.65;;;28.00;84.00;;;;;;4951853;28;20395;-70
2023/10/08 13:48:49;;;;;;;5.47;2.00;;;28.60;82.90;;;;;;4937009;29;20391;-69
2023/10/08 13:51:25;;;;;;;5.10;2.33;;;29.20;82.20;;;;;;4952609;28;20444;-69
2023/10/08 13:53:59;;;;;;;7.43;2.33;;;28.30;81.50;;;;;;4957047;28;20039;-70
2023/10/08 13:56:27;;;;;;;4.72;1.48;;;28.10;82.60;;;;;;4935588;29;20035;-69
2023/10/08 13:59:03;;;;;;;5.82;1.67;;;28.10;82.80;;;;;;4936441;29;20035;-70
2023/10/08 14:01:33;;;;;;;5.10;1.38;;;29.00;82.30;;;;;;4951190;28;20114;-70
2023/10/08 14:04:05;;;;;;;6.70;2.00;;;28.30;81.10;;;;;;4953323;28;20376;-69
2023/10/08 14:06:32;;;;;;;6.22;1.77;;;28.50;82.60;;;;;;4952534;28;20122;-69
2023/10/08 14:09:00;;;;;;;5.57;1.95;;;27.60;81.80;;;;;;4953712;28;20031;-69
2023/10/08 14:11:30;;;;;;;7.50;2.47;;;27.00;85.30;;;;;;4952696;28;20551;-69
2023/10/08 14:14:07;;;;;;;7.97;2.23;;;26.90;84.70;;;;;;4951444;29;20134;-69
2023/10/08 14:16:43;;;;;;;6.80;2.08;;;26.10;87.40;;;;;;4935959;29;20297;-69
2023/10/08 14:19:12;;;;;;;5.50;1.60;;;26.10;88.20;;;;;;4951909;29;20023;-70
2023/10/08 14:21:59;;;;;;;4.85;1.48;;;25.80;89.70;;;;;;4951093;28;20035;-68
2023/10/08 14:24:27;;;;;;;10.27;3.30;;;25.20;90.60;;;;;;4949464;28;20085;-69
2023/10/08 14:26:56;;;;;;;7.32;2.28;;;25.30;90.50;;;;;;4952428;28;20064;-70
2023/10/08 14:29:26;;;;;;;7.22;2.25;;;24.80;91.20;;;;;;4953224;29;20386;-70
2023/10/08 14:31:55;;;;;;;7.65;2.13;;;25.10;91.00;;;;;;4951652;28;20463;-69
2023/10/08 14:45:22;;;;;;;5.45;2.17;;;24.70;92.90;;;;;;4944010;28;20039;-69
2023/10/08 14:47:48;;;;;;;5.97;2.05;;;24.50;93.40;;;;;;4952279;28;20051;-56
2023/10/08 14:50:16;;;;;;;8.90;2.28;;;24.80;93.40;;;;;;4950908;28;20589;-66
2023/10/08 14:52:44;;;;;;;6.97;1.80;;;25.00;92.20;;;;;;4952798;28;20081;-67
2023/10/08 14:55:10;;;;;;;4.47;2.10;;;24.90;92.70;;;;;;4951615;28;20560;-67